Time;durP1;ratioP1;P1;durP2;ratioP2;P2;SDS_P1;SDS_P2;PMS_P1;PMS_P2;Temp;Humidity;BMP_temperature;BMP_pressure;BME280_temperature;BME280_humidity;BME280_pressure;Samples;Min_cycle;Max_cycle;Signal;HPM_P1;HPM_P2
2021/11/05 00:00:22;;;;;;;43.55;30.21;;;;;;;14.67;74.71;101915.56;445463;118;930359;-77
2021/11/05 00:01:25;;;;;;;42.06;29.59;;;;;;;14.67;74.67;101915.56;439826;118;930444;-79
2021/11/05 00:02:30;;;;;;;41.95;28.85;;;;;;;14.67;74.73;101904.58;445525;118;922628;-80
2021/11/05 00:03:33;;;;;;;37.66;29.52;;;;;;;14.68;74.69;101903.53;439980;119;922895;-79
2021/11/05 00:04:37;;;;;;;39.50;29.58;;;;;;;14.68;74.73;101900.79;435321;118;930597;-79
2021/11/05 00:05:40;;;;;;;38.71;29.89;;;;;;;14.69;74.70;101903.33;436428;118;922596;-78
2021/11/05 00:06:44;;;;;;;39.40;30.09;;;;;;;14.70;74.67;101909.67;435251;118;922744;-79
2021/11/05 00:07:48;;;;;;;39.81;29.79;;;;;;;14.70;74.63;101898.69;436814;118;930705;-80
2021/11/05 00:08:51;;;;;;;36.45;28.31;;;;;;;14.70;74.66;101904.18;434268;119;922612;-78
2021/11/05 00:09:55;;;;;;;46.00;31.39;;;;;;;14.70;74.59;101895.95;445740;118;923001;-79
2021/11/05 00:10:58;;;;;;;39.28;29.71;;;;;;;14.69;74.56;101899.74;444122;116;930343;-78
2021/11/05 00:12:02;;;;;;;40.45;30.47;;;;;;;14.67;74.50;101896.34;444582;117;922640;-79
2021/11/05 00:13:06;;;;;;;42.79;29.27;;;;;;;14.65;74.46;101903.97;439569;118;930942;-79
2021/11/05 00:14:09;;;;;;;38.92;30.12;;;;;;;14.63;74.53;101912.41;443072;116;930523;-78
2021/11/05 00:15:13;;;;;;;43.29;29.46;;;;;;;14.61;74.64;101900.77;436803;118;922977;-78
2021/11/05 00:16:18;;;;;;;42.43;30.89;;;;;;;14.61;74.70;101898.03;437409;119;930313;-78
2021/11/05 00:17:21;;;;;;;40.11;28.11;;;;;;;14.61;74.75;101906.27;442234;118;923196;-78
2021/11/05 00:18:25;;;;;;;39.38;28.42;;;;;;;14.61;74.75;101898.03;437217;118;930621;-78
2021/11/05 00:19:29;;;;;;;32.04;27.46;;;;;;;14.61;74.71;101903.52;443694;116;922717;-78
2021/11/05 00:20:34;;;;;;;38.42;29.09;;;;;;;14.60;74.70;101897.22;444234;118;923019;-78
2021/11/05 00:21:38;;;;;;;39.50;28.89;;;;;;;14.61;74.77;101901.63;439354;118;930582;-78
2021/11/05 00:22:41;;;;;;;36.45;28.18;;;;;;;14.61;74.73;101898.88;442344;116;923578;-78
2021/11/05 00:23:45;;;;;;;40.60;28.51;;;;;;;14.62;74.73;101899.73;436008;118;922726;-78
2021/11/05 00:24:48;;;;;;;40.53;28.83;;;;;;;14.64;74.78;101899.53;443162;118;930923;-80
2021/11/05 00:25:52;;;;;;;37.49;27.19;;;;;;;14.64;74.80;101896.78;436327;118;923157;-78
2021/11/05 00:26:56;;;;;;;38.42;27.99;;;;;;;14.66;74.80;101894.69;447492;114;922663;-77
2021/11/05 00:28:02;;;;;;;41.89;29.34;;;;;;;14.68;74.58;101898.89;451955;113;930912;-77
2021/11/05 00:29:05;;;;;;;36.48;27.64;;;;;;;14.68;74.58;101898.89;452616;114;922685;-78
2021/11/05 00:30:12;;;;;;;38.54;27.05;;;;;;;14.68;74.62;101895.30;452441;113;923361;-78
2021/11/05 00:31:15;;;;;;;38.21;26.50;;;;;;;14.68;74.61;101898.05;452338;113;923061;-78
2021/11/05 00:32:19;;;;;;;33.83;27.78;;;;;;;14.65;74.45;101899.33;453661;114;922355;-78
2021/11/05 00:33:23;;;;;;;40.66;27.23;;;;;;;14.65;74.45;101899.33;452059;114;930429;-78
2021/11/05 00:34:26;;;;;;;38.46;28.76;;;;;;;14.65;74.57;101898.48;453844;114;930682;-78
2021/11/05 00:35:30;;;;;;;41.29;28.74;;;;;;;14.63;74.61;101895.09;451736;114;922830;-78
2021/11/05 00:36:34;;;;;;;39.96;28.42;;;;;;;14.62;74.73;101894.23;452932;114;922587;-79
2021/11/05 00:37:38;;;;;;;37.65;28.22;;;;;;;14.62;74.69;101891.49;453668;114;922955;-78
2021/11/05 00:38:43;;;;;;;42.24;29.38;;;;;;;14.61;74.63;101893.39;452877;113;930625;-78
2021/11/05 00:39:47;;;;;;;42.94;28.59;;;;;;;14.59;74.69;101890.03;452662;113;923253;-79
2021/11/05 00:40:50;;;;;;;40.48;28.06;;;;;;;14.59;74.79;101890.03;452858;114;922477;-79
2021/11/05 00:41:54;;;;;;;42.21;26.11;;;;;;;14.59;74.81;101891.92;453290;114;930620;-79
2021/11/05 00:42:58;;;;;;;45.17;29.58;;;;;;;14.58;74.77;101893.83;454346;113;922607;-80
2021/11/05 00:44:01;;;;;;;42.74;29.85;;;;;;;14.58;74.79;101898.47;455529;113;922572;-79
2021/11/05 00:45:06;;;;;;;39.50;28.98;;;;;;;14.58;74.83;101892.97;446416;116;923132;-80
2021/11/05 00:46:10;;;;;;;38.60;28.81;;;;;;;14.58;74.87;101892.97;446606;116;930529;-80
2021/11/05 00:47:19;;;;;;;39.84;28.22;;;;;;;14.58;74.86;101902.05;440061;118;923571;-79
2021/11/05 00:48:20;;;;;;;40.24;28.00;;;;;;;14.58;74.86;101893.83;445744;116;923696;-80
2021/11/05 00:49:24;;;;;;;47.81;31.52;;;;;;;14.56;74.82;101895.92;440634;119;923209;-80
2021/11/05 00:50:28;;;;;;;40.92;29.48;;;;;;;14.55;74.87;101890.66;443245;116;930468;-80
2021/11/05 00:51:32;;;;;;;41.82;29.53;;;;;;;14.54;74.95;101895.30;440178;118;923183;-80
2021/11/05 00:52:35;;;;;;;43.61;29.81;;;;;;;14.53;74.99;101893.61;443173;117;922934;-80
2021/11/05 00:53:39;;;;;;;41.35;29.32;;;;;;;14.53;74.97;101892.76;439147;120;930182;-80
2021/11/05 00:54:42;;;;;;;41.28;30.35;;;;;;;14.53;74.98;101900.99;446437;116;930335;-80
2021/11/05 00:55:46;;;;;;;42.96;30.23;;;;;;;14.52;74.94;101896.55;437546;118;922790;-81
2021/11/05 00:56:50;;;;;;;47.23;30.86;;;;;;;14.51;75.04;101892.11;437236;118;930435;-81
2021/11/05 00:57:53;;;;;;;45.19;29.81;;;;;;;14.49;75.05;101903.32;444829;116;922747;-81
2021/11/05 00:58:57;;;;;;;45.21;31.29;;;;;;;14.48;75.11;101898.88;439369;118;930614;-81
2021/11/05 01:00:00;;;;;;;43.78;30.94;;;;;;;14.49;75.17;101897.83;440056;118;930501;-82
2021/11/05 01:01:04;;;;;;;45.09;31.42;;;;;;;14.51;75.12;101897.60;445427;116;930484;-81
2021/11/05 01:02:09;;;;;;;41.79;29.50;;;;;;;14.50;75.23;101901.42;445359;118;922680;-81
2021/11/05 01:03:12;;;;;;;42.06;30.28;;;;;;;14.50;75.23;101901.42;445562;116;930224;-82
2021/11/05 01:04:16;;;;;;;44.03;30.13;;;;;;;14.50;75.19;101902.24;442638;116;922499;-82
2021/11/05 01:05:19;;;;;;;46.13;31.39;;;;;;;14.50;75.12;101894.00;443508;116;930797;-81
2021/11/05 01:06:25;;;;;;;49.72;31.08;;;;;;;14.49;75.19;101892.34;442682;118;930408;-81
2021/11/05 01:07:28;;;;;;;49.81;31.80;;;;;;;14.49;75.19;101897.83;446368;116;922782;-82
2021/11/05 01:08:32;;;;;;;46.19;31.29;;;;;;;14.49;75.17;101892.34;440994;118;922984;-83
2021/11/05 01:09:36;;;;;;;46.37;30.77;;;;;;;14.50;75.24;101895.94;439386;118;930429;-83
2021/11/05 01:10:40;;;;;;;42.62;29.32;;;;;;;14.51;75.24;101898.45;437364;118;930405;-83
2021/11/05 01:11:44;;;;;;;43.20;29.87;;;;;;;14.53;75.23;101895.50;436986;118;923191;-83
2021/11/05 01:12:48;;;;;;;43.00;29.81;;;;;;;14.54;75.17;101889.81;446132;115;922772;-83
2021/11/05 01:13:51;;;;;;;47.93;32.23;;;;;;;14.54;75.14;101888.97;446671;116;930809;-82
2021/11/05 01:14:55;;;;;;;41.97;29.44;;;;;;;14.52;75.15;101889.17;437603;118;923213;-82
2021/11/05 01:15:58;;;;;;;46.23;31.64;;;;;;;14.52;75.14;101889.17;435477;118;931040;-82
2021/11/05 01:17:02;;;;;;;41.27;29.03;;;;;;;14.53;75.18;101892.76;446144;116;922855;-82
2021/11/05 01:18:06;;;;;;;43.88;29.95;;;;;;;14.53;75.16;101898.25;438122;118;923028;-83
2021/11/05 01:19:09;;;;;;;41.32;29.95;;;;;;;14.53;75.13;101890.86;437368;118;922922;-83
2021/11/05 01:20:17;;;;;;;45.96;30.82;;;;;;;14.53;75.14;101890.86;438079;118;922485;-83
2021/11/05 01:21:21;;;;;;;41.06;29.28;;;;;;;14.52;75.11;101886.42;446198;116;930092;-83
2021/11/05 01:22:25;;;;;;;41.08;28.53;;;;;;;14.52;75.10;101894.66;446760;116;922791;-83
2021/11/05 01:23:29;;;;;;;42.88;30.11;;;;;;;14.53;75.10;101890.02;445173;118;922798;-82
2021/11/05 01:24:32;;;;;;;40.52;28.47;;;;;;;14.53;75.09;101885.38;445529;116;930275;-82
2021/11/05 01:25:36;;;;;;;42.82;28.56;;;;;;;14.53;75.07;101887.27;438263;117;922668;-82
2021/11/05 01:26:40;;;;;;;40.21;28.70;;;;;;;14.52;75.03;101891.91;438247;118;922994;-81
2021/11/05 01:27:47;;;;;;;46.04;29.40;;;;;;;14.50;75.00;101891.27;437695;118;922596;-82
2021/11/05 01:28:50;;;;;;;41.87;28.26;;;;;;;14.47;75.00;101894.44;440612;118;923014;-81
2021/11/05 01:29:57;;;;;;;41.94;28.89;;;;;;;14.44;75.06;101892.13;441184;119;922772;-81
2021/11/05 01:30:59;;;;;;;41.01;28.65;;;;;;;14.43;75.12;101895.07;441407;117;922581;-81
2021/11/05 01:32:03;;;;;;;40.26;28.74;;;;;;;14.42;75.18;101894.22;441413;117;922737;-81
2021/11/05 01:33:07;;;;;;;42.01;28.93;;;;;;;14.43;75.22;101895.07;440955;117;923084;-79
2021/11/05 01:34:11;;;;;;;46.48;29.83;;;;;;;14.43;75.29;101893.17;440441;117;923137;-80
2021/11/05 01:35:15;;;;;;;44.32;29.97;;;;;;;14.44;75.32;101897.61;440973;119;923065;-80
2021/11/05 01:36:19;;;;;;;45.65;28.87;;;;;;;14.46;75.29;101895.48;439974;117;930470;-79
2021/11/05 01:37:23;;;;;;;40.94;30.09;;;;;;;14.47;75.25;101897.18;440364;117;922680;-80
2021/11/05 01:38:27;;;;;;;35.50;27.27;;;;;;;14.48;75.23;101892.55;439980;117;930117;-80
2021/11/05 01:39:30;;;;;;;39.53;29.37;;;;;;;14.48;75.22;101893.39;439768;119;923037;-80
2021/11/05 01:40:38;;;;;;;45.29;29.91;;;;;;;14.49;75.17;101888.75;439718;119;930443;-80
2021/11/05 01:41:42;;;;;;;46.12;30.56;;;;;;;14.48;75.13;101893.39;445747;116;930711;-80
2021/11/05 01:42:46;;;;;;;39.94;28.64;;;;;;;14.48;75.12;101893.39;437231;119;922634;-79
2021/11/05 01:43:49;;;;;;;41.18;29.77;;;;;;;14.48;75.13;101889.80;450651;115;923098;-80
2021/11/05 01:44:53;;;;;;;41.18;28.62;;;;;;;14.48;75.21;101890.64;451389;115;930596;-80
2021/11/05 01:45:57;;;;;;;40.12;28.79;;;;;;;14.49;75.16;101895.09;452153;115;930762;-81
2021/11/05 01:47:00;;;;;;;41.54;29.56;;;;;;;14.50;75.19;101898.68;451426;115;930605;-80
2021/11/05 01:48:04;;;;;;;43.54;29.34;;;;;;;14.50;75.12;101891.27;452204;115;923050;-80
2021/11/05 01:49:09;;;;;;;38.75;29.48;;;;;;;14.50;75.04;101888.52;451644;115;930151;-80
2021/11/05 01:50:14;;;;;;;37.64;28.52;;;;;;;14.51;75.07;101889.36;453299;115;922740;-80
2021/11/05 01:51:18;;;;;;;42.55;29.84;;;;;;;14.50;75.02;101888.52;453621;115;923130;-80
2021/11/05 01:52:21;;;;;;;39.42;28.49;;;;;;;14.50;74.98;101893.19;454714;115;922649;-79
2021/11/05 01:53:25;;;;;;;40.02;29.21;;;;;;;14.50;74.99;101890.45;453269;115;922592;-80
2021/11/05 01:54:29;;;;;;;41.71;30.60;;;;;;;14.50;75.06;101891.27;453859;115;922595;-81
2021/11/05 01:55:32;;;;;;;41.72;30.15;;;;;;;14.51;75.10;101895.70;454186;115;923058;-81
2021/11/05 01:56:37;;;;;;;40.56;28.63;;;;;;;14.53;75.09;101906.48;453682;115;922842;-80
2021/11/05 01:57:44;;;;;;;41.13;29.47;;;;;;;14.54;75.07;101891.71;452179;115;930769;-80
2021/11/05 01:58:47;;;;;;;44.22;28.79;;;;;;;14.55;75.03;101896.97;452395;115;922644;-81
2021/11/05 01:59:52;;;;;;;44.29;29.40;;;;;;;14.56;74.92;101900.56;453199;115;923115;-80
2021/11/05 02:00:56;;;;;;;41.51;29.15;;;;;;;14.55;74.82;101905.20;452152;115;922887;-80
2021/11/05 02:02:03;;;;;;;45.39;30.69;;;;;;;14.54;74.82;101899.94;453527;115;923416;-79
2021/11/05 02:03:07;;;;;;;44.51;30.01;;;;;;;14.52;74.83;101896.55;451709;115;930467;-80
2021/11/05 02:04:10;;;;;;;46.47;30.22;;;;;;;14.51;74.87;101903.94;451287;115;922822;-79
2021/11/05 02:05:14;;;;;;;44.49;30.24;;;;;;;14.52;74.86;101905.63;452936;115;923072;-79
2021/11/05 02:06:23;;;;;;;41.45;29.42;;;;;;;14.51;74.85;101901.19;453609;115;923161;-78
2021/11/05 02:07:28;;;;;;;40.87;29.58;;;;;;;14.49;74.79;101900.58;453626;115;923213;-79
2021/11/05 02:08:34;;;;;;;47.75;30.87;;;;;;;14.50;74.86;101906.91;452289;115;922920;-79
2021/11/05 02:09:39;;;;;;;43.55;31.13;;;;;;;14.49;74.84;101911.55;452432;115;922976;-78
2021/11/05 02:10:45;;;;;;;45.99;30.75;;;;;;;14.49;74.89;101907.96;453436;114;923062;-79
2021/11/05 02:11:50;;;;;;;46.52;30.04;;;;;;;14.49;74.92;101910.70;451996;115;922298;-79
2021/11/05 02:12:55;;;;;;;39.23;29.02;;;;;;;14.49;74.92;101910.70;451576;115;922592;-80
2021/11/05 02:14:01;;;;;;;47.75;31.04;;;;;;;14.50;74.90;101907.73;455794;115;922536;-81
2021/11/05 02:15:06;;;;;;;45.73;30.55;;;;;;;14.49;74.84;101906.06;453742;115;922679;-80
2021/11/05 02:16:12;;;;;;;50.34;32.13;;;;;;;14.49;74.86;101906.06;453285;115;923317;-79
2021/11/05 02:17:16;;;;;;;44.93;30.91;;;;;;;14.50;74.87;101901.42;451883;115;922529;-78
2021/11/05 02:18:19;;;;;;;48.52;31.10;;;;;;;14.50;74.89;101904.98;453912;115;923229;-79
2021/11/05 02:19:25;;;;;;;44.35;31.83;;;;;;;14.52;74.91;101907.53;453900;115;922765;-81
2021/11/05 02:20:29;;;;;;;42.51;29.72;;;;;;;14.54;74.92;101908.18;452823;115;922590;-78
2021/11/05 02:21:38;;;;;;;44.36;29.82;;;;;;;14.55;74.94;101909.88;451626;115;923155;-80
2021/11/05 02:22:42;;;;;;;45.98;30.62;;;;;;;14.56;74.89;101904.16;452864;115;930404;-79
2021/11/05 02:23:46;;;;;;;44.38;30.53;;;;;;;14.57;74.78;101903.11;452783;115;923197;-81
2021/11/05 02:24:49;;;;;;;44.78;29.49;;;;;;;14.57;74.77;101899.52;452482;115;922702;-81
2021/11/05 02:25:53;;;;;;;43.33;29.62;;;;;;;14.56;74.76;101898.66;453124;115;923174;-80
2021/11/05 02:26:58;;;;;;;40.19;28.75;;;;;;;14.55;74.71;101896.97;452620;115;923060;-81
2021/11/05 02:28:02;;;;;;;40.63;29.07;;;;;;;14.54;74.73;101900.80;450880;115;922742;-80
2021/11/05 02:29:06;;;;;;;42.73;29.95;;;;;;;14.54;74.82;101898.05;452397;115;923087;-80
2021/11/05 02:30:11;;;;;;;43.78;29.88;;;;;;;14.55;74.79;101896.97;452260;115;922636;-81
2021/11/05 02:31:15;;;;;;;42.66;29.42;;;;;;;14.57;74.76;101896.77;452597;114;923183;-81
2021/11/05 02:32:18;;;;;;;41.37;28.71;;;;;;;14.57;74.74;101892.13;451895;115;922940;-82
2021/11/05 02:33:22;;;;;;;45.04;29.50;;;;;;;14.58;74.69;101906.70;452004;115;922935;-81
2021/11/05 02:34:25;;;;;;;42.74;28.74;;;;;;;14.59;74.64;101902.91;451608;115;930549;-81
2021/11/05 02:35:29;;;;;;;43.71;28.87;;;;;;;14.58;74.59;101913.04;452944;115;930734;-81
2021/11/05 02:36:34;;;;;;;44.26;29.57;;;;;;;14.57;74.51;101905.84;444314;117;930559;-82
2021/11/05 02:37:37;;;;;;;42.66;29.92;;;;;;;14.54;74.48;101909.03;443062;115;922609;-80
2021/11/05 02:38:41;;;;;;;45.76;30.19;;;;;;;14.51;74.50;101923.15;454774;115;922917;-81
2021/11/05 02:39:46;;;;;;;43.38;29.31;;;;;;;14.48;74.56;101920.84;453658;115;929473;-82
2021/11/05 02:40:49;;;;;;;47.87;31.19;;;;;;;14.47;74.62;101918.29;455153;115;922636;-82
2021/11/05 02:41:53;;;;;;;46.56;29.69;;;;;;;14.45;74.73;101921.23;453039;115;930519;-81
2021/11/05 02:42:58;;;;;;;46.18;30.61;;;;;;;14.46;74.79;101925.67;453201;115;922893;-82
2021/11/05 02:44:02;;;;;;;44.91;29.76;;;;;;;14.47;74.86;101926.52;449504;115;922489;-81
2021/11/05 02:45:06;;;;;;;45.80;30.04;;;;;;;14.47;74.76;101921.88;445107;117;922577;-81
2021/11/05 02:46:11;;;;;;;42.93;28.69;;;;;;;14.48;74.78;101918.09;449798;115;923104;-81
2021/11/05 02:47:24;;;;;;;41.17;29.96;;;;;;;14.49;74.74;101928.02;449395;117;922606;-80
2021/11/05 02:48:28;;;;;;;41.39;28.24;;;;;;;14.49;74.72;101922.53;447785;117;930312;-81
2021/11/05 02:49:31;;;;;;;41.04;28.65;;;;;;;14.49;74.70;101927.17;448791;117;923393;-80
2021/11/05 02:50:35;;;;;;;42.54;29.89;;;;;;;14.48;74.72;101923.58;442227;119;930234;-78
2021/11/05 02:51:39;;;;;;;41.58;28.76;;;;;;;14.47;74.75;101927.38;442764;117;930547;-79
2021/11/05 02:52:43;;;;;;;45.37;29.07;;;;;;;14.48;74.76;101928.22;443717;117;930449;-80
2021/11/05 02:53:47;;;;;;;44.53;28.91;;;;;;;14.48;74.73;101919.98;437322;118;922507;-79
2021/11/05 02:54:51;;;;;;;43.68;29.32;;;;;;;14.47;74.76;101932.86;449912;115;922574;-78
2021/11/05 02:55:54;;;;;;;38.41;29.66;;;;;;;14.47;74.80;101919.14;443911;119;922847;-79
2021/11/05 02:56:58;;;;;;;39.76;28.77;;;;;;;14.48;74.80;101925.47;449809;115;922480;-80
2021/11/05 02:58:02;;;;;;;40.31;27.64;;;;;;;14.48;74.63;101922.73;448243;115;930606;-80
2021/11/05 02:59:06;;;;;;;42.79;28.22;;;;;;;14.48;74.63;101922.73;449923;115;930617;-80
2021/11/05 03:00:13;;;;;;;41.48;28.51;;;;;;;14.48;74.74;101923.58;439363;118;923253;-80
2021/11/05 03:01:16;;;;;;;40.37;26.94;;;;;;;14.48;74.72;101920.84;436902;118;930796;-78
2021/11/05 03:02:23;;;;;;;38.86;27.80;;;;;;;14.49;74.72;101918.94;447771;115;922690;-79
2021/11/05 03:03:27;;;;;;;36.54;26.31;;;;;;;14.49;74.70;101921.69;440896;118;923081;-79
2021/11/05 03:04:31;;;;;;;36.74;25.76;;;;;;;14.49;74.69;101921.69;449974;115;922976;-79
2021/11/05 03:05:34;;;;;;;38.34;27.42;;;;;;;14.48;74.68;101917.24;442796;118;923150;-79
2021/11/05 03:06:41;;;;;;;36.34;26.29;;;;;;;14.47;74.68;101910.91;442478;118;930737;-78
2021/11/05 03:07:45;;;;;;;36.51;25.93;;;;;;;14.47;74.66;101923.78;441673;117;930639;-81
2021/11/05 03:08:48;;;;;;;38.23;26.36;;;;;;;14.46;74.66;101917.44;442256;119;922629;-79
2021/11/05 03:09:52;;;;;;;38.26;26.11;;;;;;;14.46;74.64;101922.93;442115;119;930478;-81
2021/11/05 03:10:56;;;;;;;34.42;25.91;;;;;;;14.44;74.64;101921.47;441794;119;930637;-79
2021/11/05 03:12:00;;;;;;;39.68;27.84;;;;;;;14.44;74.68;101919.56;441913;119;922597;-80
2021/11/05 03:13:04;;;;;;;37.86;26.68;;;;;;;14.43;74.67;101919.77;441826;119;923110;-80
2021/11/05 03:14:08;;;;;;;36.46;26.11;;;;;;;14.42;74.70;101918.92;441846;118;923088;-77
2021/11/05 03:15:12;;;;;;;33.72;25.38;;;;;;;14.41;74.69;101921.86;442113;118;930801;-79
2021/11/05 03:16:17;;;;;;;32.57;25.88;;;;;;;14.39;74.72;101913.83;441672;118;923158;-79
2021/11/05 03:17:23;;;;;;;35.87;24.74;;;;;;;14.37;74.77;101915.11;440253;118;923065;-78
2021/11/05 03:18:30;;;;;;;34.81;25.29;;;;;;;14.36;74.81;101919.71;448807;117;923055;-79
2021/11/05 03:19:32;;;;;;;31.42;25.21;;;;;;;14.36;74.82;101922.45;439345;119;922986;-79
2021/11/05 03:20:36;;;;;;;34.98;25.56;;;;;;;14.35;74.82;101923.50;449485;114;923332;-78
2021/11/05 03:21:42;;;;;;;30.87;24.62;;;;;;;14.34;74.83;101913.58;456792;113;923037;-80
2021/11/05 03:22:45;;;;;;;35.95;25.52;;;;;;;14.35;74.89;101917.16;457233;114;922597;-79
2021/11/05 03:23:49;;;;;;;37.73;25.57;;;;;;;14.35;74.86;101911.68;458094;114;923174;-78
2021/11/05 03:24:53;;;;;;;34.88;24.61;;;;;;;14.34;74.86;101913.58;457229;114;930576;-78
2021/11/05 03:25:56;;;;;;;34.92;24.86;;;;;;;14.34;74.87;101916.31;457028;114;930528;-78
2021/11/05 03:26:59;;;;;;;37.21;25.31;;;;;;;14.33;74.84;101909.16;457815;114;930469;-79
2021/11/05 03:28:03;;;;;;;31.67;23.98;;;;;;;14.32;74.89;101907.47;457869;114;923194;-79
2021/11/05 03:29:07;;;;;;;34.92;24.76;;;;;;;14.30;74.90;101912.30;458973;114;930363;-79
2021/11/05 03:30:14;;;;;;;29.54;23.64;;;;;;;14.30;74.96;101912.30;458158;114;922722;-79
2021/11/05 03:31:18;;;;;;;39.26;24.27;;;;;;;14.29;74.96;101910.61;458243;114;922508;-78
2021/11/05 03:32:22;;;;;;;34.16;23.37;;;;;;;14.28;74.99;101917.14;458344;114;922631;-79
2021/11/05 03:33:26;;;;;;;31.93;25.36;;;;;;;14.27;75.05;101909.14;458076;113;922586;-78
2021/11/05 03:34:30;;;;;;;27.14;23.00;;;;;;;14.26;75.05;101911.03;457419;114;923281;-77
2021/11/05 03:35:33;;;;;;;30.49;23.84;;;;;;;14.27;75.05;101903.66;458178;113;922646;-80
2021/11/05 03:36:37;;;;;;;30.04;23.48;;;;;;;14.25;75.07;101903.00;458946;114;922988;-78
2021/11/05 03:37:43;;;;;;;31.44;23.84;;;;;;;14.24;75.04;101901.30;457951;113;922717;-79
2021/11/05 03:38:46;;;;;;;30.29;23.44;;;;;;;14.23;75.11;101905.95;458176;114;923205;-79
2021/11/05 03:39:50;;;;;;;27.74;22.86;;;;;;;14.24;75.15;101895.82;459498;114;922109;-79
2021/11/05 03:40:53;;;;;;;31.00;24.55;;;;;;;14.23;75.20;101897.72;459360;114;930074;-78
2021/11/05 03:41:58;;;;;;;26.89;23.27;;;;;;;14.23;75.18;101899.61;459024;114;930326;-79
2021/11/05 03:43:02;;;;;;;29.18;24.26;;;;;;;14.24;75.22;101899.41;459168;114;930181;-78
2021/11/05 03:44:06;;;;;;;29.13;24.02;;;;;;;14.25;75.23;101898.37;459221;114;922571;-78
2021/11/05 03:45:09;;;;;;;32.74;22.99;;;;;;;14.27;75.22;101898.17;457277;114;922661;-78
2021/11/05 03:46:14;;;;;;;29.56;22.18;;;;;;;14.28;75.19;101897.94;457105;114;930540;-80
2021/11/05 03:47:18;;;;;;;25.02;22.24;;;;;;;14.29;75.17;101902.38;458386;114;923089;-78
2021/11/05 03:48:22;;;;;;;26.13;23.39;;;;;;;14.32;75.13;101901.98;456835;114;922625;-80
2021/11/05 03:49:26;;;;;;;28.17;23.27;;;;;;;14.33;75.03;101895.45;450435;116;923218;-78
2021/11/05 03:50:30;;;;;;;26.03;21.93;;;;;;;14.35;74.99;101893.32;451344;114;922753;-77
2021/11/05 03:51:34;;;;;;;26.07;22.16;;;;;;;14.35;74.93;101889.73;456696;114;922628;-78
2021/11/05 03:52:38;;;;;;;24.35;21.45;;;;;;;14.35;74.87;101895.22;441871;119;930134;-80
2021/11/05 03:53:41;;;;;;;24.89;21.01;;;;;;;14.35;74.76;101896.06;443965;117;923059;-80
2021/11/05 03:54:45;;;;;;;22.92;20.72;;;;;;;14.34;74.72;101893.52;443386;117;923001;-80
2021/11/05 03:55:48;;;;;;;24.19;21.40;;;;;;;14.33;74.75;101895.45;443229;117;930584;-80
2021/11/05 03:56:52;;;;;;;30.02;22.61;;;;;;;14.32;74.68;101899.23;448008;117;930724;-79
2021/11/05 03:57:55;;;;;;;24.02;21.57;;;;;;;14.32;74.75;101895.64;448262;117;930388;-79
2021/11/05 03:58:59;;;;;;;24.16;20.89;;;;;;;14.31;74.71;101894.80;449428;115;931040;-79
2021/11/05 04:00:10;;;;;;;24.26;20.86;;;;;;;14.31;74.65;101894.80;441230;117;923038;-79
2021/11/05 04:01:14;;;;;;;23.07;20.69;;;;;;;14.31;74.66;101885.72;437950;120;922630;-80
2021/11/05 04:02:18;;;;;;;24.96;22.19;;;;;;;14.31;74.63;101889.31;441142;118;922677;-78
2021/11/05 04:03:22;;;;;;;23.02;20.70;;;;;;;14.32;74.64;101891.00;449268;116;922583;-79
2021/11/05 04:04:25;;;;;;;22.84;20.54;;;;;;;14.32;74.62;101892.90;448581;115;923272;-79
2021/11/05 04:05:29;;;;;;;22.73;20.52;;;;;;;14.31;74.53;101892.05;449306;117;923227;-82
2021/11/05 04:06:33;;;;;;;22.09;19.89;;;;;;;14.30;74.45;101890.36;448345;117;922692;-81
2021/11/05 04:07:36;;;;;;;23.23;19.46;;;;;;;14.28;74.43;101891.63;449167;116;922697;-80
2021/11/05 04:08:40;;;;;;;21.91;19.72;;;;;;;14.26;74.44;101891.83;437328;117;923465;-80
2021/11/05 04:09:46;;;;;;;20.77;18.82;;;;;;;14.24;74.48;101890.33;449777;115;922831;-80
2021/11/05 04:10:50;;;;;;;22.90;19.34;;;;;;;14.23;74.50;101894.97;449344;115;923008;-80
2021/11/05 04:11:53;;;;;;;21.32;18.94;;;;;;;14.21;74.55;101899.84;447786;117;930606;-79
2021/11/05 04:12:58;;;;;;;20.92;18.78;;;;;;;14.20;74.53;101895.40;449526;115;922802;-80
2021/11/05 04:14:01;;;;;;;20.15;18.24;;;;;;;14.19;74.48;101889.06;448162;115;922562;-78
2021/11/05 04:15:06;;;;;;;19.96;17.89;;;;;;;14.17;74.57;101887.56;447930;115;922541;-80
2021/11/05 04:16:10;;;;;;;20.56;18.63;;;;;;;14.16;74.61;101894.13;448442;115;922717;-80
2021/11/05 04:17:14;;;;;;;20.85;18.81;;;;;;;14.14;74.59;101887.99;443508;117;922641;-76
2021/11/05 04:18:18;;;;;;;20.54;18.48;;;;;;;14.12;74.67;101890.94;452103;114;923452;-79
2021/11/05 04:19:21;;;;;;;19.79;18.02;;;;;;;14.12;74.77;101887.34;457643;114;930924;-79
2021/11/05 04:20:26;;;;;;;20.82;18.89;;;;;;;14.12;74.79;101890.09;458319;114;930751;-79
2021/11/05 04:21:30;;;;;;;20.46;18.57;;;;;;;14.12;74.80;101881.86;458216;114;923196;-80
2021/11/05 04:22:33;;;;;;;19.95;18.15;;;;;;;14.12;74.79;101887.34;456184;114;922663;-77
2021/11/05 04:23:37;;;;;;;19.69;17.69;;;;;;;14.13;74.78;101894.52;458830;114;923125;-79
2021/11/05 04:24:41;;;;;;;21.26;19.22;;;;;;;14.12;74.89;101890.94;457859;114;922577;-81
2021/11/05 04:25:46;;;;;;;18.71;16.97;;;;;;;14.13;74.88;101889.89;458375;114;923009;-78
2021/11/05 04:26:49;;;;;;;19.14;17.27;;;;;;;14.15;74.86;101898.77;458919;114;930318;-79
2021/11/05 04:27:53;;;;;;;19.84;17.86;;;;;;;14.16;74.80;101886.75;457794;114;923128;-80
2021/11/05 04:28:56;;;;;;;19.62;17.65;;;;;;;14.16;74.74;101894.13;459542;114;922667;-78
2021/11/05 04:30:00;;;;;;;18.89;17.12;;;;;;;14.15;74.84;101890.54;459180;114;922763;-79
2021/11/05 04:31:03;;;;;;;19.62;17.75;;;;;;;14.15;74.84;101890.54;460247;113;930034;-78
2021/11/05 04:32:07;;;;;;;19.98;18.06;;;;;;;14.16;74.79;101888.64;458463;114;922616;-78
2021/11/05 04:33:12;;;;;;;19.48;17.54;;;;;;;14.16;74.77;101886.75;457754;113;923038;-80
2021/11/05 04:34:15;;;;;;;19.95;18.26;;;;;;;14.17;74.76;101893.05;457266;114;922993;-80
2021/11/05 04:35:19;;;;;;;19.00;17.20;;;;;;;14.17;74.82;101890.31;457409;114;923161;-79
2021/11/05 04:36:24;;;;;;;19.22;17.47;;;;;;;14.19;74.81;101883.58;458538;113;925278;-81
2021/11/05 04:37:27;;;;;;;19.45;17.52;;;;;;;14.20;74.86;101879.79;458114;114;923051;-80
2021/11/05 04:38:31;;;;;;;19.26;17.44;;;;;;;14.23;74.80;101885.89;457261;114;922662;-80
2021/11/05 04:39:34;;;;;;;18.99;17.32;;;;;;;14.23;74.72;101878.52;458071;114;922717;-80
2021/11/05 04:40:39;;;;;;;19.42;17.46;;;;;;;14.23;74.69;101878.52;457217;114;930566;-79
2021/11/05 04:41:43;;;;;;;19.10;17.19;;;;;;;14.22;74.67;101878.74;458485;114;923163;-80
2021/11/05 04:42:48;;;;;;;19.14;17.44;;;;;;;14.19;74.71;101878.09;458493;114;923390;-79
2021/11/05 04:43:51;;;;;;;21.36;19.32;;;;;;;14.18;74.70;101873.66;457869;114;922509;-80
2021/11/05 04:44:55;;;;;;;19.59;17.62;;;;;;;14.16;74.73;101884.01;460404;111;930824;-82
2021/11/05 04:45:58;;;;;;;20.95;18.74;;;;;;;14.14;74.74;101883.36;463799;111;930820;-81
2021/11/05 04:47:02;;;;;;;19.00;17.20;;;;;;;14.13;74.83;101886.30;464290;111;930524;-79
2021/11/05 04:48:05;;;;;;;19.56;17.37;;;;;;;14.12;74.87;101887.34;456230;113;922713;-80